Time;durP1;ratioP1;P1;durP2;ratioP2;P2;SDS_P1;SDS_P2;PMS_P1;PMS_P2;Temp;Humidity;BMP_temperature;BMP_pressure;BME280_temperature;BME280_humidity;BME280_pressure;Samples;Min_cycle;Max_cycle;Signal;HPM_P1;HPM_P2
2022/04/07 00:01:26;;;;;;;18.33;15.07;;;;;;;12.10;63.55;100809.66;4988073;28;102175;-88
2022/04/07 00:03:54;;;;;;;16.27;14.55;;;;;;;12.10;63.58;100811.59;4976025;28;104305;-88
2022/04/07 00:06:20;;;;;;;17.30;15.45;;;;;;;12.08;63.87;100803.69;4980503;28;102680;-88
2022/04/07 00:08:49;;;;;;;18.15;15.75;;;;;;;12.09;63.58;100799.84;4976680;28;102395;-88
2022/04/07 00:11:16;;;;;;;16.92;15.13;;;;;;;12.09;63.34;100799.06;4988204;28;102636;-89
2022/04/07 00:13:43;;;;;;;17.25;15.43;;;;;;;12.09;63.60;100793.59;4994298;28;104025;-89
2022/04/07 00:16:10;;;;;;;17.80;15.98;;;;;;;12.10;63.97;100806.94;4988606;28;101898;-89
2022/04/07 00:18:40;;;;;;;17.27;15.50;;;;;;;12.10;63.66;100798.75;4975627;28;102048;-90
2022/04/07 00:21:34;;;;;;;16.88;15.07;;;;;;;12.10;63.72;100796.03;4977168;28;102841;-90
2022/04/07 00:24:03;;;;;;;17.17;15.18;;;;;;;12.12;63.70;100798.50;4981659;28;103868;-89
2022/04/07 00:26:30;;;;;;;17.95;15.80;;;;;;;12.11;63.67;100796.84;4994825;28;101840;-89
2022/04/07 00:28:57;;;;;;;17.98;16.00;;;;;;;12.10;63.52;100801.47;4994600;28;102592;-89
2022/04/07 00:31:24;;;;;;;18.25;16.35;;;;;;;12.10;63.81;100796.03;4986231;28;102208;-89
2022/04/07 00:33:53;;;;;;;16.45;14.73;;;;;;;12.10;63.76;100798.75;4976033;28;103823;-88
2022/04/07 00:36:19;;;;;;;18.77;16.48;;;;;;;12.09;63.75;100794.41;4986183;28;102081;-89
2022/04/07 00:38:48;;;;;;;18.55;16.50;;;;;;;12.09;63.99;100797.13;4996401;28;102495;-88
2022/04/07 00:41:14;;;;;;;17.75;15.70;;;;;;;12.09;63.47;100790.88;4996269;28;102735;-88
2022/04/07 00:43:41;;;;;;;18.27;16.35;;;;;;;12.10;63.71;100785.13;4992851;28;103902;-87
2022/04/07 00:46:08;;;;;;;18.35;16.42;;;;;;;12.10;63.87;100787.84;4994391;28;102059;-88
2022/04/07 00:48:35;;;;;;;19.17;16.35;;;;;;;12.10;63.71;100782.38;4995076;28;101984;-88
2022/04/07 00:51:03;;;;;;;19.35;16.67;;;;;;;12.09;63.97;100775.31;4975735;28;102428;-88
2022/04/07 00:53:30;;;;;;;18.50;15.70;;;;;;;12.09;64.08;100771.78;4978749;28;103944;-88
2022/04/07 00:56:01;;;;;;;17.60;15.70;;;;;;;12.10;63.89;100778.84;4988294;28;102184;-88
2022/04/07 00:58:28;;;;;;;;;;;;;;;12.10;63.75;100779.66;4993477;28;102394;-88
2022/04/07 01:00:56;;;;;;;18.23;16.08;;;;;;;12.09;63.99;100778.03;4983731;28;102684;-89
2022/04/07 01:03:23;;;;;;;20.00;16.97;;;;;;;12.09;63.86;100772.59;4993995;28;104395;-89
2022/04/07 01:05:50;;;;;;;18.63;16.02;;;;;;;12.09;63.88;100774.50;4989103;28;102546;-88
2022/04/07 01:08:17;;;;;;;19.50;17.23;;;;;;;12.10;64.09;100779.66;4983024;28;102142;-89
2022/04/07 01:10:45;;;;;;;19.98;17.02;;;;;;;12.09;63.94;100771.78;4995146;28;102449;-88
2022/04/07 01:13:15;;;;;;;18.70;16.70;;;;;;;12.10;63.64;100763.28;4990586;28;104107;-89
2022/04/07 01:15:57;;;;;;;18.50;16.55;;;;;;;12.10;63.71;100774.19;4974985;28;102569;-88
2022/04/07 01:18:24;;;;;;;20.00;16.73;;;;;;;12.10;63.90;100763.28;4983955;28;102319;-88
2022/04/07 01:20:51;;;;;;;18.90;16.55;;;;;;;12.08;63.68;100754.59;4994964;28;102557;-90
2022/04/07 01:23:17;;;;;;;19.40;16.75;;;;;;;12.10;63.63;100762.47;4992800;28;104027;-89
2022/04/07 01:25:46;;;;;;;18.10;16.00;;;;;;;12.10;63.79;100752.38;4992685;28;102588;-90
2022/04/07 01:28:14;;;;;;;18.67;16.33;;;;;;;12.10;63.85;100746.94;4992869;28;102316;-91
2022/04/07 01:30:40;;;;;;;18.95;16.55;;;;;;;12.10;63.71;100746.94;4993644;28;102465;-90
2022/04/07 01:33:07;;;;;;;19.08;16.95;;;;;;;12.10;63.95;100736.00;4993872;28;103990;-89
2022/04/07 01:35:35;;;;;;;18.95;16.83;;;;;;;12.10;63.73;100737.94;4993780;28;102563;-89
2022/04/07 01:38:01;;;;;;;18.30;16.15;;;;;;;12.10;64.02;100740.66;4994363;28;102085;-89
2022/04/07 01:40:33;;;;;;;18.92;16.83;;;;;;;12.09;64.17;100733.56;4992512;28;102444;-89
2022/04/07 01:43:04;;;;;;;19.15;16.90;;;;;;;12.11;64.01;100737.63;4993513;28;104079;-88
2022/04/07 01:45:33;;;;;;;19.73;16.83;;;;;;;12.09;63.99;100730.84;4994542;28;101955;-89
2022/04/07 01:48:01;;;;;;;18.15;16.25;;;;;;;12.10;63.93;100729.75;4993966;28;102276;-88
2022/04/07 01:50:39;;;;;;;18.17;16.27;;;;;;;12.09;64.01;100717.22;4995119;28;102341;-88
2022/04/07 01:53:07;;;;;;;17.92;16.02;;;;;;;12.09;64.14;100734.41;4992876;28;103935;-89
2022/04/07 01:55:34;;;;;;;20.33;17.30;;;;;;;12.09;63.69;100723.47;4992580;28;103249;-90
2022/04/07 01:58:03;;;;;;;18.92;16.90;;;;;;;12.08;63.74;100721.84;4993584;28;102251;-89
2022/04/07 02:00:29;;;;;;;18.93;16.60;;;;;;;12.08;63.75;100716.41;4993228;28;102101;-89
2022/04/07 02:02:56;;;;;;;17.85;15.95;;;;;;;12.08;63.96;100715.56;4993690;28;103863;-88
2022/04/07 02:05:23;;;;;;;18.25;15.55;;;;;;;12.08;63.99;100710.94;4994114;28;102485;-88
2022/04/07 02:07:49;;;;;;;18.02;15.43;;;;;;;12.08;64.15;100704.66;5009996;28;102558;-88
2022/04/07 02:10:19;;;;;;;17.73;15.48;;;;;;;12.08;64.08;100710.09;4994477;28;102144;-88
2022/04/07 02:12:46;;;;;;;19.63;16.58;;;;;;;12.07;63.99;100709.28;4992680;28;104098;-88
2022/04/07 02:15:14;;;;;;;19.08;15.88;;;;;;;12.08;64.00;100705.50;4993950;28;102638;-87
2022/04/07 02:17:41;;;;;;;19.15;17.05;;;;;;;12.08;63.98;100710.09;4991867;28;102404;-87
2022/04/07 02:20:10;;;;;;;17.50;15.40;;;;;;;12.07;64.18;100709.28;4994489;28;102330;-87
2022/04/07 02:22:37;;;;;;;18.57;16.67;;;;;;;12.08;64.02;100710.94;4992570;28;103838;-87
2022/04/07 02:25:08;;;;;;;17.33;15.13;;;;;;;12.08;63.94;100705.50;4986475;28;102011;-88
2022/04/07 02:27:36;;;;;;;18.83;15.90;;;;;;;12.07;64.16;100703.84;4991549;28;101985;-86
2022/04/07 02:30:04;;;;;;;16.90;15.10;;;;;;;12.08;64.16;100704.66;4994162;28;102243;-86
2022/04/07 02:32:33;;;;;;;16.08;14.45;;;;;;;12.08;64.12;100701.91;4993636;28;103122;-86
2022/04/07 02:35:00;;;;;;;16.58;14.85;;;;;;;12.07;64.00;100706.56;4993491;28;101970;-87
2022/04/07 02:37:27;;;;;;;18.52;15.77;;;;;;;12.08;64.04;100705.50;4991454;28;102089;-87
2022/04/07 02:39:54;;;;;;;17.75;15.10;;;;;;;12.08;64.01;100705.50;4994139;28;102220;-87
2022/04/07 02:42:22;;;;;;;17.50;15.38;;;;;;;12.08;63.97;100699.19;4994058;28;104040;-88
2022/04/07 02:44:50;;;;;;;17.70;14.93;;;;;;;12.07;64.16;100703.84;4993393;28;102025;-89
2022/04/07 02:47:17;;;;;;;17.00;14.70;;;;;;;12.07;64.15;100701.09;4992357;28;102831;-89
2022/04/07 02:49:47;;;;;;;15.95;14.25;;;;;;;12.08;64.12;100704.66;4994076;28;102453;-89
2022/04/07 02:52:13;;;;;;;17.02;14.38;;;;;;;12.07;63.86;100698.38;4992457;28;103878;-88
2022/04/07 02:54:40;;;;;;;16.58;14.77;;;;;;;12.07;64.16;100703.84;4992389;28;101876;-88
2022/04/07 02:57:07;;;;;;;17.95;15.15;;;;;;;12.08;64.09;100689.13;4991711;28;102101;-87
2022/04/07 02:59:36;;;;;;;16.05;14.38;;;;;;;12.07;64.42;100698.38;4992831;28;102655;-87
2022/04/07 03:02:03;;;;;;;15.25;13.30;;;;;;;12.08;64.20;100699.19;4991383;28;104337;-87
2022/04/07 03:04:30;;;;;;;16.83;14.27;;;;;;;12.08;64.08;100700.03;4993158;28;102563;-88
2022/04/07 03:06:58;;;;;;;15.70;13.70;;;;;;;12.07;64.21;100701.09;4991923;28;102952;-89
2022/04/07 03:09:24;;;;;;;15.63;13.90;;;;;;;12.08;64.32;100704.66;4979420;28;102571;-89
2022/04/07 03:11:51;;;;;;;14.55;13.00;;;;;;;12.08;64.06;100699.19;4981687;28;104020;-88
2022/04/07 03:14:17;;;;;;;15.52;13.45;;;;;;;12.07;64.28;100698.38;4987203;28;102029;-89
2022/04/07 03:16:48;;;;;;;15.32;13.73;;;;;;;12.08;64.21;100705.50;4992220;28;102268;-88
2022/04/07 03:19:22;;;;;;;15.35;13.63;;;;;;;12.08;63.95;100705.50;4984860;28;102789;-88
2022/04/07 03:21:49;;;;;;;15.15;13.40;;;;;;;12.08;64.32;100705.50;4986446;28;104055;-88
2022/04/07 03:24:17;;;;;;;15.32;13.13;;;;;;;12.09;64.26;100707.13;4992325;28;102692;-88
2022/04/07 03:26:43;;;;;;;15.45;13.30;;;;;;;12.09;64.33;100707.13;4991646;28;102205;-88
2022/04/07 03:29:10;;;;;;;16.70;12.98;;;;;;;12.08;64.43;100701.91;4992381;28;102274;-88
2022/04/07 03:31:39;;;;;;;;;;;;;;;12.07;64.21;100703.84;4990209;28;103861;-88
2022/04/07 03:34:05;;;;;;;13.90;12.40;;;;;;;12.07;64.34;100706.56;4989835;28;102268;-90
2022/04/07 03:36:32;;;;;;;15.27;13.65;;;;;;;12.08;64.20;100702.75;4980770;28;102693;-89
2022/04/07 03:38:59;;;;;;;14.88;13.27;;;;;;;12.07;64.19;100703.84;4993247;28;102343;-89
2022/04/07 03:41:28;;;;;;;14.65;12.85;;;;;;;12.08;64.36;100708.22;4991287;28;103945;-87
2022/04/07 03:43:54;;;;;;;;;;;;;;;12.09;64.30;100707.13;4992104;28;102415;-88
2022/04/07 03:46:22;;;;;;;14.07;11.52;;;;;;;12.09;64.14;100706.31;4990157;28;102488;-88
2022/04/07 03:48:49;;;;;;;13.18;11.52;;;;;;;12.07;64.48;100703.84;4992336;28;102224;-87
2022/04/07 03:51:16;;;;;;;13.43;12.02;;;;;;;12.08;64.45;100689.13;4990252;28;103199;-87
2022/04/07 03:53:44;;;;;;;12.48;11.18;;;;;;;12.10;64.16;100697.00;4990374;28;102103;-88
2022/04/07 03:56:10;;;;;;;13.20;11.80;;;;;;;12.09;64.38;100693.47;4992594;28;102322;-88
2022/04/07 03:58:42;;;;;;;13.65;12.25;;;;;;;12.08;64.52;100694.56;4992990;28;102291;-88
2022/04/07 04:01:09;;;;;;;15.27;12.35;;;;;;;12.09;64.34;100690.75;4978088;28;103904;-87
2022/04/07 04:03:36;;;;;;;13.50;11.73;;;;;;;12.08;64.16;100689.13;4972711;28;102170;-89
2022/04/07 04:06:03;;;;;;;12.45;10.77;;;;;;;12.10;64.18;100691.56;4979651;28;102022;-88
2022/04/07 04:08:29;;;;;;;14.55;12.02;;;;;;;12.12;64.29;100694.84;4991883;28;102180;-88
2022/04/07 04:11:01;;;;;;;11.52;10.30;;;;;;;12.12;64.16;100694.84;4991419;28;104187;-88
2022/04/07 04:13:29;;;;;;;12.60;11.18;;;;;;;12.12;64.22;100690.19;4992818;28;102392;-88
2022/04/07 04:15:58;;;;;;;12.13;10.60;;;;;;;12.12;64.27;100682.00;4991409;28;102068;-89
2022/04/07 04:18:24;;;;;;;11.82;10.10;;;;;;;12.13;64.08;100691.81;4992722;28;102216;-88
2022/04/07 04:20:51;;;;;;;10.73;9.45;;;;;;;12.13;63.82;100691.81;4991787;28;103975;-89
2022/04/07 04:23:17;;;;;;;9.77;8.77;;;;;;;12.14;63.78;100684.44;4992715;28;101903;-89
2022/04/07 04:25:46;;;;;;;9.13;8.23;;;;;;;12.14;64.27;100682.50;4991970;28;102207;-89
2022/04/07 04:28:13;;;;;;;10.30;9.30;;;;;;;12.15;64.09;100683.31;4992125;28;102429;-89
2022/04/07 04:30:42;;;;;;;10.68;9.07;;;;;;;12.16;64.08;100693.97;4992913;28;103829;-89
2022/04/07 04:33:10;;;;;;;9.60;8.57;;;;;;;12.16;64.03;100696.69;4987309;28;101881;-89
2022/04/07 04:35:37;;;;;;;10.43;8.05;;;;;;;12.17;63.71;100694.78;4989589;28;102901;-90
2022/04/07 04:38:04;;;;;;;10.55;8.73;;;;;;;12.17;63.95;100692.88;4986910;28;102528;-90
2022/04/07 04:40:31;;;;;;;8.98;8.05;;;;;;;12.18;64.12;100699.94;4996589;28;103980;-89
2022/04/07 04:42:59;;;;;;;12.15;8.30;;;;;;;12.18;63.67;100704.59;4987325;28;102113;-90
2022/04/07 04:45:26;;;;;;;11.47;8.10;;;;;;;12.17;63.80;100700.25;4999415;28;102119;-90
2022/04/07 04:47:52;;;;;;;10.20;8.45;;;;;;;12.16;63.82;100702.16;4999333;28;102100;-90
2022/04/07 04:50:27;;;;;;;11.05;8.75;;;;;;;12.17;63.81;100697.50;4996528;28;103892;-90
2022/04/07 04:52:54;;;;;;;9.63;8.63;;;;;;;12.16;64.11;100695.88;5000295;28;102528;-90
2022/04/07 04:55:21;;;;;;;11.45;8.10;;;;;;;12.16;63.87;100691.25;4990544;28;102390;-90
2022/04/07 04:57:48;;;;;;;9.93;8.10;;;;;;;12.17;64.00;100692.88;4999128;28;102147;-89
2022/04/07 05:00:15;;;;;;;9.63;8.30;;;;;;;12.16;63.82;100688.53;4999359;28;103914;-89
2022/04/07 05:02:42;;;;;;;9.38;7.65;;;;;;;12.17;63.88;100687.41;5011044;28;102145;-91
2022/04/07 05:05:12;;;;;;;9.00;7.40;;;;;;;12.16;63.95;100683.06;4991076;28;102630;-89
2022/04/07 05:07:41;;;;;;;8.27;6.65;;;;;;;12.17;64.02;100690.13;4996072;28;102045;-88
2022/04/07 05:10:08;;;;;;;8.77;6.50;;;;;;;12.17;63.52;100686.59;4991373;28;103912;-87
2022/04/07 05:12:37;;;;;;;9.05;7.10;;;;;;;12.18;63.91;100680.84;4997413;28;102554;-86
2022/04/07 05:15:07;;;;;;;8.13;6.55;;;;;;;12.18;63.77;100675.38;4992301;28;101973;-87
2022/04/07 05:17:35;;;;;;;7.00;6.35;;;;;;;12.20;63.81;100678.66;4998103;28;102198;-86
2022/04/07 05:20:04;;;;;;;7.10;5.30;;;;;;;12.21;63.94;100677.56;4983925;28;103868;-87
2022/04/07 05:22:31;;;;;;;6.50;5.75;;;;;;;12.22;63.90;100676.44;4977603;28;102275;-87
2022/04/07 05:24:59;;;;;;;8.18;6.35;;;;;;;12.23;63.95;100675.38;4973826;28;102792;-86
2022/04/07 05:27:28;;;;;;;8.52;5.50;;;;;;;12.25;63.50;100678.63;4976072;28;102160;-86
2022/04/07 05:29:55;;;;;;;10.05;5.93;;;;;;;12.25;63.62;100675.88;4988016;28;104103;-87
2022/04/07 05:32:22;;;;;;;6.57;5.35;;;;;;;12.27;63.57;100675.63;4991515;28;102044;-87
2022/04/07 05:34:50;;;;;;;8.32;5.57;;;;;;;12.28;63.61;100671.78;4989017;28;102498;-87
2022/04/07 05:37:17;;;;;;;9.70;6.13;;;;;;;12.31;63.73;100664.97;4992163;28;102168;-87
2022/04/07 05:39:44;;;;;;;6.97;5.57;;;;;;;12.31;63.81;100662.22;4992970;28;103990;-87
2022/04/07 05:42:12;;;;;;;8.20;5.60;;;;;;;12.31;63.68;100665.78;4982298;28;102209;-87
2022/04/07 05:44:39;;;;;;;8.13;5.80;;;;;;;12.33;63.60;100660.81;4985365;28;102785;-87
2022/04/07 05:47:08;;;;;;;7.68;5.53;;;;;;;12.35;63.76;100660.56;4992291;28;102608;-87
2022/04/07 05:49:35;;;;;;;8.15;5.88;;;;;;;12.35;63.65;100661.38;4997487;28;103962;-87
2022/04/07 05:52:04;;;;;;;7.68;5.35;;;;;;;12.36;63.63;100659.44;4997123;28;101931;-87
2022/04/07 05:54:30;;;;;;;;;;;;;;;12.36;63.43;100652.06;4985817;28;101939;-87
2022/04/07 05:56:57;;;;;;;8.07;5.90;;;;;;;12.37;63.17;100661.06;4986857;28;102444;-88
2022/04/07 05:59:25;;;;;;;6.43;4.88;;;;;;;12.37;63.57;100647.44;4986127;28;103924;-87
2022/04/07 06:01:52;;;;;;;8.65;5.43;;;;;;;12.38;63.68;100654.53;4979529;28;101946;-87
2022/04/07 06:04:19;;;;;;;9.48;5.05;;;;;;;12.39;63.56;100650.69;4983906;28;102381;-87
2022/04/07 06:06:46;;;;;;;7.03;4.95;;;;;;;12.40;63.53;100655.84;4994841;28;102302;-86
2022/04/07 06:09:12;;;;;;;7.28;5.75;;;;;;;12.40;63.58;100653.13;4990212;28;104158;-87
2022/04/07 06:11:39;;;;;;;7.70;5.65;;;;;;;12.41;63.47;100651.25;4993890;28;102484;-87
2022/04/07 06:14:05;;;;;;;7.80;5.38;;;;;;;12.42;63.63;100650.13;4991503;28;102123;-87
2022/04/07 06:16:34;;;;;;;6.50;4.72;;;;;;;12.42;63.59;100645.47;4994055;28;102268;-87
2022/04/07 06:19:02;;;;;;;7.95;4.68;;;;;;;12.43;63.70;100643.56;4992870;28;103465;-87
2022/04/07 06:21:33;;;;;;;8.35;5.53;;;;;;;12.44;63.55;100643.28;4981640;28;102282;-86
2022/04/07 06:24:08;;;;;;;7.07;5.13;;;;;;;12.47;63.10;100639.16;4973624;28;102453;-86
2022/04/07 06:26:35;;;;;;;7.95;5.10;;;;;;;12.46;63.46;100632.09;4993714;28;102288;-86
2022/04/07 06:29:01;;;;;;;5.95;4.75;;;;;;;12.47;63.34;100630.97;4990959;28;104171;-86
2022/04/07 06:31:28;;;;;;;6.95;5.22;;;;;;;12.48;63.74;100635.34;4990751;28;102002;-87
2022/04/07 06:33:56;;;;;;;6.10;5.25;;;;;;;12.49;63.62;100628.78;4990653;28;102469;-86
2022/04/07 06:36:23;;;;;;;7.00;4.85;;;;;;;12.47;63.68;100626.31;4993734;28;102416;-87
2022/04/07 06:38:49;;;;;;;6.57;4.90;;;;;;;12.49;63.70;100620.59;4991526;28;103731;-87
2022/04/07 06:41:15;;;;;;;5.80;4.53;;;;;;;12.49;63.58;100617.88;4990021;28;102065;-87
2022/04/07 06:43:42;;;;;;;6.40;4.90;;;;;;;12.49;63.82;100617.88;4987719;28;102498;-87
2022/04/07 06:46:09;;;;;;;6.88;4.90;;;;;;;12.50;63.89;100614.03;4993139;28;102281;-89
2022/04/07 06:48:35;;;;;;;7.15;5.25;;;;;;;12.52;63.53;100617.28;4990091;28;103916;-88
2022/04/07 06:51:05;;;;;;;4.97;4.07;;;;;;;12.52;63.58;100617.28;4989770;28;102839;-86
2022/04/07 06:53:31;;;;;;;5.28;4.03;;;;;;;12.53;63.63;100608.00;4985195;28;103833;-86
2022/04/07 06:55:58;;;;;;;4.43;3.85;;;;;;;12.53;63.40;100616.19;4991767;28;102363;-89
2022/04/07 06:58:26;;;;;;;6.28;4.53;;;;;;;12.54;63.54;100606.09;4990848;28;103974;-89
2022/04/07 07:00:53;;;;;;;5.63;4.18;;;;;;;12.55;63.46;100600.34;4988461;28;103702;-87
2022/04/07 07:03:22;;;;;;;5.18;3.60;;;;;;;12.55;63.36;100597.63;4990395;28;102045;-89
2022/04/07 07:05:49;;;;;;;5.30;3.72;;;;;;;12.56;63.56;100599.25;4982086;28;102436;-88
2022/04/07 07:08:29;;;;;;;4.50;3.38;;;;;;;12.57;63.26;100600.84;4984771;28;104373;-90
2022/04/07 07:11:03;;;;;;;4.80;3.47;;;;;;;12.58;63.21;100597.03;4976619;28;102519;-90
2022/04/07 07:13:49;;;;;;;7.07;4.13;;;;;;;12.58;63.38;100599.75;4988793;28;102518;-89
2022/04/07 07:16:17;;;;;;;6.40;3.45;;;;;;;12.59;63.41;100595.94;4992853;28;102253;-88
2022/04/07 07:18:43;;;;;;;6.35;3.40;;;;;;;12.60;63.24;100583.91;4990093;28;104050;-89
2022/04/07 07:21:10;;;;;;;5.30;3.13;;;;;;;12.60;63.23;100592.09;4975449;28;101975;-89
2022/04/07 07:23:38;;;;;;;4.93;3.40;;;;;;;12.62;63.20;100589.91;4984041;28;102196;-90
2022/04/07 07:26:05;;;;;;;5.50;3.43;;;;;;;12.63;63.23;100590.72;4992850;28;102629;-89
2022/04/07 07:28:32;;;;;;;6.72;3.05;;;;;;;12.64;62.93;100584.97;4977944;28;104728;-88
2022/04/07 07:31:01;;;;;;;4.45;3.28;;;;;;;12.63;63.30;100591.53;4985329;28;102259;-87
2022/04/07 07:33:28;;;;;;;4.15;3.35;;;;;;;12.62;63.15;100581.72;5012548;28;102010;-94
2022/04/07 07:35:57;;;;;;;4.75;3.50;;;;;;;12.62;63.21;100584.44;4993759;28;102301;-93
2022/04/07 07:38:24;;;;;;;4.15;3.33;;;;;;;12.63;63.28;100583.34;4993405;28;103434;-90
2022/04/07 07:41:02;;;;;;;5.57;2.85;;;;;;;12.64;63.13;100576.78;4998909;28;102060;-93
2022/04/07 07:43:35;;;;;;;6.93;4.25;;;;;;;12.64;63.56;100586.88;4991357;28;102563;-89
2022/04/07 07:46:02;;;;;;;5.25;3.53;;;;;;;12.62;63.16;100565.34;4994419;28;102152;-90
2022/04/07 07:48:29;;;;;;;6.03;3.38;;;;;;;12.62;62.92;100579.00;4992530;28;104035;-90
2022/04/07 07:50:57;;;;;;;5.72;3.30;;;;;;;12.62;63.17;100572.69;4991756;28;102398;-86
2022/04/07 07:53:24;;;;;;;5.75;3.38;;;;;;;12.61;63.19;100571.88;4992041;28;102032;-88
2022/04/07 07:55:55;;;;;;;4.50;3.20;;;;;;;12.60;63.12;100564.78;4989659;28;102310;-88
2022/04/07 07:58:25;;;;;;;6.67;3.67;;;;;;;12.61;62.72;100566.41;4996988;28;103885;-86
2022/04/07 08:00:52;;;;;;;6.05;3.42;;;;;;;12.61;63.31;100566.41;4992345;28;102005;-87
2022/04/07 08:03:18;;;;;;;6.88;3.50;;;;;;;12.62;63.13;100564.50;4993260;28;102550;-87
2022/04/07 08:05:45;;;;;;;6.05;3.10;;;;;;;12.60;62.64;100559.34;4992385;28;102208;-89
2022/04/07 08:08:16;;;;;;;5.75;3.50;;;;;;;12.61;62.72;100551.97;4994550;28;103233;-91
2022/04/07 08:10:43;;;;;;;6.78;3.00;;;;;;;12.61;62.96;100558.22;4986448;28;101904;-88
2022/04/07 08:13:12;;;;;;;6.35;3.40;;;;;;;12.60;63.12;100559.34;4999129;28;102242;-89
2022/04/07 08:15:41;;;;;;;5.95;2.92;;;;;;;12.60;63.17;100547.63;4989860;28;102148;-88
2022/04/07 08:18:08;;;;;;;6.32;3.05;;;;;;;12.59;63.19;100549.53;4975641;28;104362;-90
2022/04/07 08:20:35;;;;;;;6.35;2.88;;;;;;;12.58;62.87;100556.06;4991511;28;102447;-90
2022/04/07 08:23:01;;;;;;;4.93;3.30;;;;;;;12.57;62.79;100543.53;4994462;28;102459;-90
2022/04/07 08:25:29;;;;;;;5.22;2.67;;;;;;;12.56;62.89;100552.84;4995615;28;102103;-90
2022/04/07 08:27:55;;;;;;;5.72;3.20;;;;;;;12.56;62.80;100546.56;4994407;28;103879;-89
2022/04/07 08:30:22;;;;;;;5.65;2.83;;;;;;;12.53;62.45;100547.94;4990375;28;102285;-90
2022/04/07 08:32:50;;;;;;;9.40;3.92;;;;;;;12.52;62.68;100538.13;4994077;28;102514;-89
2022/04/07 08:35:22;;;;;;;7.85;3.65;;;;;;;12.50;62.52;100543.88;5010509;28;102316;-89
2022/04/07 08:37:50;;;;;;;7.95;3.05;;;;;;;12.50;62.40;100548.53;4988861;28;104145;-89
2022/04/07 08:40:20;;;;;;;5.93;2.90;;;;;;;12.49;62.16;100546.91;4977484;28;102182;-89
2022/04/07 08:42:47;;;;;;;6.45;3.10;;;;;;;12.47;62.43;100544.44;4993120;28;102442;-87
2022/04/07 08:45:14;;;;;;;8.02;3.60;;;;;;;12.46;62.15;100550.19;4994726;28;102435;-87
2022/04/07 08:47:41;;;;;;;8.57;3.30;;;;;;;12.43;62.12;100548.03;4992500;28;103872;-87
2022/04/07 08:50:14;;;;;;;7.75;3.30;;;;;;;12.43;62.00;100542.59;4995054;28;102399;-86
2022/04/07 08:52:45;;;;;;;6.40;2.83;;;;;;;12.42;61.87;100546.41;4988204;28;102762;-88
2022/04/07 08:55:27;;;;;;;5.72;2.75;;;;;;;12.41;62.30;100544.81;4992343;28;102775;-91
2022/04/07 08:57:55;;;;;;;6.65;3.25;;;;;;;12.39;61.85;100542.34;4991043;28;104273;-86
2022/04/07 09:00:21;;;;;;;8.82;3.33;;;;;;;12.40;62.10;100543.16;4992545;28;102051;-87
2022/04/07 09:02:51;;;;;;;6.60;3.30;;;;;;;12.39;62.03;100533.34;4990871;28;102260;-89
2022/04/07 09:05:25;;;;;;;5.28;2.55;;;;;;;12.37;62.04;100527.34;4993289;28;102147;-88
2022/04/07 09:07:54;;;;;;;8.05;3.38;;;;;;;12.37;62.04;100521.88;4988631;28;104005;-87
2022/04/07 09:10:21;;;;;;;;;;;;;;;12.35;62.37;100519.47;4988539;28;102340;-87
2022/04/07 09:12:48;;;;;;;6.00;3.00;;;;;;;12.36;61.73;100517.53;4983274;28;102259;-88
2022/04/07 09:15:15;;;;;;;7.28;3.20;;;;;;;12.35;62.14;100513.19;4979045;28;102199;-88
2022/04/07 09:17:50;;;;;;;5.05;2.70;;;;;;;12.35;62.17;100514.00;4992812;28;103920;-87
2022/04/07 09:20:17;;;;;;;6.80;2.95;;;;;;;12.35;62.18;100499.56;4988815;28;102355;-87
2022/04/07 09:22:54;;;;;;;9.90;3.30;;;;;;;12.34;62.11;100506.94;4976950;28;102251;-87
2022/04/07 09:25:20;;;;;;;6.45;2.97;;;;;;;12.33;62.03;100509.94;4979635;28;102172;-88
2022/04/07 09:27:49;;;;;;;6.85;2.97;;;;;;;12.32;62.08;100508.31;4993918;28;104172;-88
2022/04/07 09:30:16;;;;;;;9.18;3.20;;;;;;;12.31;62.01;100507.50;4990556;28;102022;-87
2022/04/07 09:32:44;;;;;;;7.18;3.42;;;;;;;12.31;61.84;100502.03;4975972;28;102538;-88
2022/04/07 09:35:11;;;;;;;6.70;3.90;;;;;;;12.32;62.07;100505.59;4978026;28;102065;-87
2022/04/07 09:37:40;;;;;;;7.32;3.17;;;;;;;12.32;62.27;100489.22;4973663;28;104201;-87
2022/04/07 09:40:12;;;;;;;11.07;3.35;;;;;;;12.31;62.10;100479.41;4988849;28;102116;-88
2022/04/07 09:42:43;;;;;;;10.23;3.40;;;;;;;12.32;62.11;100483.75;4977962;28;102241;-87
2022/04/07 09:45:14;;;;;;;8.95;3.40;;;;;;;12.30;62.13;100475.88;4975971;28;102217;-88
2022/04/07 09:47:43;;;;;;;5.30;3.30;;;;;;;12.31;62.15;100479.41;4989320;28;103885;-88
2022/04/07 09:50:21;;;;;;;5.88;2.70;;;;;;;12.29;62.01;100476.13;4990701;28;102460;-87
2022/04/07 09:52:55;;;;;;;8.70;3.25;;;;;;;12.29;62.15;100465.22;4994061;28;102054;-88
2022/04/07 09:55:27;;;;;;;8.15;3.47;;;;;;;12.27;62.23;100452.69;4980511;28;102364;-88
2022/04/07 09:57:55;;;;;;;8.13;3.38;;;;;;;12.27;62.10;100458.16;4975682;28;103928;-88
2022/04/07 10:00:23;;;;;;;6.33;3.40;;;;;;;12.26;62.16;100456.53;4978501;28;102225;-88
2022/04/07 10:02:50;;;;;;;7.78;3.47;;;;;;;12.26;61.97;100447.50;4997046;28;102410;-87
2022/04/07 10:05:17;;;;;;;13.10;4.00;;;;;;;12.26;62.07;100445.63;4998554;28;102665;-87
2022/04/07 10:07:44;;;;;;;6.25;3.42;;;;;;;12.26;62.28;100445.63;5011427;28;104153;-87
2022/04/07 10:10:11;;;;;;;8.20;3.72;;;;;;;12.25;62.11;100441.25;4997169;28;101938;-87
2022/04/07 10:12:41;;;;;;;9.95;3.60;;;;;;;12.25;62.31;100433.06;4995728;28;102049;-87
2022/04/07 10:15:08;;;;;;;9.13;3.90;;;;;;;12.26;62.35;100433.88;4985163;28;102544;-88
2022/04/07 10:17:37;;;;;;;6.47;3.58;;;;;;;12.25;62.20;100427.59;4975876;28;103847;-87
2022/04/07 10:20:08;;;;;;;8.85;4.10;;;;;;;12.24;62.32;100417.78;4978829;28;102196;-87
2022/04/07 10:22:49;;;;;;;7.57;3.47;;;;;;;12.25;62.34;100405.78;4976004;28;101888;-88
2022/04/07 10:25:20;;;;;;;11.68;4.25;;;;;;;12.23;62.43;100402.53;4992320;28;102320;-88
2022/04/07 10:27:50;;;;;;;11.68;3.70;;;;;;;12.23;62.56;100402.53;4973656;28;103990;-87
2022/04/07 10:30:17;;;;;;;9.85;3.97;;;;;;;12.23;62.20;100391.63;4975056;28;102410;-88
2022/04/07 10:32:45;;;;;;;10.10;3.78;;;;;;;12.23;62.86;100388.09;4973911;28;102596;-87
2022/04/07 10:35:33;;;;;;;13.95;4.05;;;;;;;12.22;62.83;100384.53;4974262;28;102335;-88
2022/04/07 10:38:01;;;;;;;9.18;3.55;;;;;;;12.22;62.62;100383.72;4973412;28;103923;-87
2022/04/07 10:40:51;;;;;;;8.13;3.73;;;;;;;12.21;62.72;100385.63;4974007;28;102425;-88
2022/04/07 10:43:22;;;;;;;9.82;3.85;;;;;;;12.22;62.86;100373.59;4988308;28;102456;-87
2022/04/07 10:45:50;;;;;;;10.35;4.05;;;;;;;12.22;62.85;100372.81;4974560;28;102447;-88
2022/04/07 10:48:26;;;;;;;9.57;3.97;;;;;;;12.21;63.08;100365.72;4973168;28;103666;-88
2022/04/07 10:50:55;;;;;;;7.65;3.47;;;;;;;12.21;62.90;100360.28;4973228;28;101951;-88
2022/04/07 10:53:26;;;;;;;8.65;3.75;;;;;;;12.21;62.82;100366.53;4973191;28;102472;-88
2022/04/07 10:55:59;;;;;;;10.60;3.70;;;;;;;12.21;63.45;100361.06;4973588;28;102298;-88
2022/04/07 10:58:49;;;;;;;11.25;3.97;;;;;;;12.22;63.29;100359.16;4982432;28;104061;-87
2022/04/07 11:01:36;;;;;;;5.32;2.92;;;;;;;12.20;63.15;100348.56;4971597;28;102530;-88
2022/04/07 11:04:28;;;;;;;10.15;3.75;;;;;;;12.20;63.36;100345.81;4974866;28;102661;-88
2022/04/07 11:07:16;;;;;;;9.95;3.13;;;;;;;12.20;63.46;100342.28;4978668;28;102318;-87
2022/04/07 11:09:44;;;;;;;8.45;3.35;;;;;;;12.19;63.56;100341.47;4987388;28;103941;-87
2022/04/07 11:12:17;;;;;;;9.35;3.70;;;;;;;12.19;63.66;100344.19;4984195;28;102614;-87
2022/04/07 11:14:46;;;;;;;10.13;3.58;;;;;;;12.20;63.47;100343.09;4992038;28;102977;-88
2022/04/07 11:17:22;;;;;;;9.05;3.75;;;;;;;12.19;63.71;100333.28;4977163;28;102480;-88
2022/04/07 11:20:03;;;;;;;11.25;3.58;;;;;;;12.19;63.38;100330.56;4972157;28;104014;-88